sensor_id;sensor_type;location;lat;lon;timestamp;temperature;humidity
25554;DHT22;13446;50.926;5.332;2023-11-18T00:01:30;8.00;99.90
25554;DHT22;13446;50.926;5.332;2023-11-18T00:03:56;7.90;99.90
25554;DHT22;13446;50.926;5.332;2023-11-18T00:06:22;7.80;99.90
25554;DHT22;13446;50.926;5.332;2023-11-18T00:08:48;7.80;99.90
25554;DHT22;13446;50.926;5.332;2023-11-18T00:11:13;7.80;99.90
25554;DHT22;13446;50.926;5.332;2023-11-18T00:13:40;7.90;99.90
25554;DHT22;13446;50.926;5.332;2023-11-18T00:16:09;7.70;99.90
25554;DHT22;13446;50.926;5.332;2023-11-18T00:18:38;7.80;99.90
25554;DHT22;13446;50.926;5.332;2023-11-18T00:21:06;7.80;99.90
25554;DHT22;13446;50.926;5.332;2023-11-18T00:23:31;7.80;99.90
25554;DHT22;13446;50.926;5.332;2023-11-18T00:25:57;7.70;99.90
25554;DHT22;13446;50.926;5.332;2023-11-18T00:28:23;7.70;99.90
25554;DHT22;13446;50.926;5.332;2023-11-18T00:30:49;7.70;99.90
25554;DHT22;13446;50.926;5.332;2023-11-18T00:33:15;7.80;99.90
25554;DHT22;13446;50.926;5.332;2023-11-18T00:35:40;7.80;99.90
25554;DHT22;13446;50.926;5.332;2023-11-18T00:38:08;7.80;99.90
25554;DHT22;13446;50.926;5.332;2023-11-18T00:40:33;7.70;99.90
25554;DHT22;13446;50.926;5.332;2023-11-18T00:43:00;7.70;99.90
25554;DHT22;13446;50.926;5.332;2023-11-18T00:45:26;7.70;99.90
25554;DHT22;13446;50.926;5.332;2023-11-18T00:47:54;7.60;99.90
25554;DHT22;13446;50.926;5.332;2023-11-18T00:50:20;7.50;99.90
25554;DHT22;13446;50.926;5.332;2023-11-18T00:52:45;7.50;99.90
25554;DHT22;13446;50.926;5.332;2023-11-18T00:55:15;7.40;99.90
25554;DHT22;13446;50.926;5.332;2023-11-18T00:57:44;7.50;99.90
25554;DHT22;13446;50.926;5.332;2023-11-18T01:00:12;7.40;99.90
25554;DHT22;13446;50.926;5.332;2023-11-18T01:02:48;7.40;99.90
25554;DHT22;13446;50.926;5.332;2023-11-18T01:05:15;7.40;99.90
25554;DHT22;13446;50.926;5.332;2023-11-18T01:07:41;7.50;99.90
25554;DHT22;13446;50.926;5.332;2023-11-18T01:10:08;7.40;99.90
25554;DHT22;13446;50.926;5.332;2023-11-18T01:12:36;7.40;99.90
25554;DHT22;13446;50.926;5.332;2023-11-18T01:15:03;7.50;99.90
25554;DHT22;13446;50.926;5.332;2023-11-18T01:17:29;7.60;99.90
25554;DHT22;13446;50.926;5.332;2023-11-18T01:19:57;7.70;99.90
25554;DHT22;13446;50.926;5.332;2023-11-18T01:22:23;7.60;99.90
25554;DHT22;13446;50.926;5.332;2023-11-18T01:24:49;7.60;99.90
25554;DHT22;13446;50.926;5.332;2023-11-18T01:27:16;7.60;99.90
25554;DHT22;13446;50.926;5.332;2023-11-18T01:29:44;7.60;99.90
25554;DHT22;13446;50.926;5.332;2023-11-18T01:32:12;7.60;99.90
25554;DHT22;13446;50.926;5.332;2023-11-18T01:34:39;7.70;99.90
25554;DHT22;13446;50.926;5.332;2023-11-18T01:37:05;7.60;99.90
25554;DHT22;13446;50.926;5.332;2023-11-18T01:39:33;7.60;99.90
25554;DHT22;13446;50.926;5.332;2023-11-18T01:41:59;7.70;99.90
25554;DHT22;13446;50.926;5.332;2023-11-18T01:44:25;7.70;99.90
25554;DHT22;13446;50.926;5.332;2023-11-18T01:47:00;7.80;99.90
25554;DHT22;13446;50.926;5.332;2023-11-18T01:49:28;7.80;99.90
25554;DHT22;13446;50.926;5.332;2023-11-18T01:51:54;8.00;99.90
25554;DHT22;13446;50.926;5.332;2023-11-18T01:54:22;8.00;99.90
25554;DHT22;13446;50.926;5.332;2023-11-18T01:56:49;8.20;99.90
25554;DHT22;13446;50.926;5.332;2023-11-18T01:59:16;8.30;99.90
25554;DHT22;13446;50.926;5.332;2023-11-18T02:01:52;8.30;99.90
25554;DHT22;13446;50.926;5.332;2023-11-18T02:04:20;8.20;99.90
25554;DHT22;13446;50.926;5.332;2023-11-18T02:06:48;8.10;99.90
25554;DHT22;13446;50.926;5.332;2023-11-18T02:09:15;8.20;99.90
25554;DHT22;13446;50.926;5.332;2023-11-18T02:14:39;8.10;99.90
25554;DHT22;13446;50.926;5.332;2023-11-18T02:17:05;8.00;99.90
25554;DHT22;13446;50.926;5.332;2023-11-18T02:19:35;7.90;99.90
25554;DHT22;13446;50.926;5.332;2023-11-18T02:22:01;7.90;99.90
25554;DHT22;13446;50.926;5.332;2023-11-18T02:24:31;7.80;99.90
25554;DHT22;13446;50.926;5.332;2023-11-18T02:27:02;7.90;99.90
25554;DHT22;13446;50.926;5.332;2023-11-18T02:29:36;8.00;99.90
25554;DHT22;13446;50.926;5.332;2023-11-18T02:34:34;7.90;99.90
25554;DHT22;13446;50.926;5.332;2023-11-18T02:37:05;7.90;99.90
25554;DHT22;13446;50.926;5.332;2023-11-18T02:39:43;7.80;99.90
25554;DHT22;13446;50.926;5.332;2023-11-18T02:42:12;7.80;99.90
25554;DHT22;13446;50.926;5.332;2023-11-18T02:44:39;7.70;99.90
25554;DHT22;13446;50.926;5.332;2023-11-18T02:47:05;7.70;99.90
25554;DHT22;13446;50.926;5.332;2023-11-18T02:49:32;7.60;99.90
25554;DHT22;13446;50.926;5.332;2023-11-18T02:51:59;7.40;99.90
25554;DHT22;13446;50.926;5.332;2023-11-18T02:54:25;7.40;99.90
25554;DHT22;13446;50.926;5.332;2023-11-18T02:56:51;7.40;99.90
25554;DHT22;13446;50.926;5.332;2023-11-18T02:59:17;7.50;99.90
25554;DHT22;13446;50.926;5.332;2023-11-18T03:01:43;7.50;99.90
25554;DHT22;13446;50.926;5.332;2023-11-18T03:04:10;7.50;99.90
25554;DHT22;13446;50.926;5.332;2023-11-18T03:06:36;7.50;99.90
25554;DHT22;13446;50.926;5.332;2023-11-18T03:09:02;7.40;99.90
25554;DHT22;13446;50.926;5.332;2023-11-18T03:11:32;7.40;99.90
25554;DHT22;13446;50.926;5.332;2023-11-18T03:13:58;7.40;99.90
25554;DHT22;13446;50.926;5.332;2023-11-18T03:16:24;7.60;99.90
25554;DHT22;13446;50.926;5.332;2023-11-18T03:18:50;7.40;99.90
25554;DHT22;13446;50.926;5.332;2023-11-18T03:21:17;7.30;99.90
25554;DHT22;13446;50.926;5.332;2023-11-18T03:23:45;7.40;99.90
25554;DHT22;13446;50.926;5.332;2023-11-18T03:26:10;7.50;99.90
25554;DHT22;13446;50.926;5.332;2023-11-18T03:28:37;7.60;99.90
25554;DHT22;13446;50.926;5.332;2023-11-18T03:31:06;7.70;99.90
25554;DHT22;13446;50.926;5.332;2023-11-18T03:33:33;7.60;99.90
25554;DHT22;13446;50.926;5.332;2023-11-18T03:35:58;7.40;99.90
25554;DHT22;13446;50.926;5.332;2023-11-18T03:38:25;7.30;99.90
25554;DHT22;13446;50.926;5.332;2023-11-18T03:40:50;7.40;99.90
25554;DHT22;13446;50.926;5.332;2023-11-18T03:43:18;7.40;99.90
25554;DHT22;13446;50.926;5.332;2023-11-18T03:45:44;7.40;99.90
25554;DHT22;13446;50.926;5.332;2023-11-18T03:48:09;7.50;99.90
25554;DHT22;13446;50.926;5.332;2023-11-18T03:50:40;7.60;99.90
25554;DHT22;13446;50.926;5.332;2023-11-18T03:53:05;7.50;99.90
25554;DHT22;13446;50.926;5.332;2023-11-18T03:55:32;7.60;99.90
25554;DHT22;13446;50.926;5.332;2023-11-18T03:57:57;7.70;99.90
25554;DHT22;13446;50.926;5.332;2023-11-18T04:00:23;7.70;99.90
25554;DHT22;13446;50.926;5.332;2023-11-18T04:02:58;7.70;99.90
25554;DHT22;13446;50.926;5.332;2023-11-18T04:05:24;7.60;99.90
25554;DHT22;13446;50.926;5.332;2023-11-18T04:07:50;7.80;99.90
25554;DHT22;13446;50.926;5.332;2023-11-18T04:10:16;7.80;99.90
25554;DHT22;13446;50.926;5.332;2023-11-18T04:12:43;7.80;99.90
25554;DHT22;13446;50.926;5.332;2023-11-18T04:15:12;7.60;99.90
25554;DHT22;13446;50.926;5.332;2023-11-18T04:17:37;7.70;99.90
25554;DHT22;13446;50.926;5.332;2023-11-18T04:20:04;7.70;99.90
25554;DHT22;13446;50.926;5.332;2023-11-18T04:22:34;7.60;99.90
25554;DHT22;13446;50.926;5.332;2023-11-18T04:24:59;7.50;99.90
25554;DHT22;13446;50.926;5.332;2023-11-18T04:27:25;7.40;99.90
25554;DHT22;13446;50.926;5.332;2023-11-18T04:29:51;7.60;99.90
25554;DHT22;13446;50.926;5.332;2023-11-18T04:32:16;7.60;99.90
25554;DHT22;13446;50.926;5.332;2023-11-18T04:34:42;7.70;99.90
25554;DHT22;13446;50.926;5.332;2023-11-18T04:37:08;7.90;99.90
25554;DHT22;13446;50.926;5.332;2023-11-18T04:39:34;7.80;99.90
25554;DHT22;13446;50.926;5.332;2023-11-18T04:42:00;7.90;99.90
25554;DHT22;13446;50.926;5.332;2023-11-18T04:44:29;7.80;99.90
25554;DHT22;13446;50.926;5.332;2023-11-18T04:46:57;7.90;99.90
25554;DHT22;13446;50.926;5.332;2023-11-18T04:49:22;8.10;99.90
25554;DHT22;13446;50.926;5.332;2023-11-18T04:51:48;8.20;99.90
25554;DHT22;13446;50.926;5.332;2023-11-18T04:54:14;8.20;99.90
25554;DHT22;13446;50.926;5.332;2023-11-18T04:56:39;8.10;99.90
25554;DHT22;13446;50.926;5.332;2023-11-18T04:59:05;8.10;99.90
25554;DHT22;13446;50.926;5.332;2023-11-18T05:01:32;8.10;99.90
25554;DHT22;13446;50.926;5.332;2023-11-18T05:03:58;8.00;99.90
25554;DHT22;13446;50.926;5.332;2023-11-18T05:06:25;7.90;99.90
25554;DHT22;13446;50.926;5.332;2023-11-18T05:08:51;7.90;99.90
25554;DHT22;13446;50.926;5.332;2023-11-18T05:11:17;8.00;99.90
25554;DHT22;13446;50.926;5.332;2023-11-18T05:13:43;7.90;99.90
25554;DHT22;13446;50.926;5.332;2023-11-18T05:16:08;8.10;99.90
25554;DHT22;13446;50.926;5.332;2023-11-18T05:18:36;8.10;99.90
25554;DHT22;13446;50.926;5.332;2023-11-18T05:21:03;8.00;99.90
25554;DHT22;13446;50.926;5.332;2023-11-18T05:23:31;7.90;99.90
25554;DHT22;13446;50.926;5.332;2023-11-18T05:25:57;7.90;99.90
25554;DHT22;13446;50.926;5.332;2023-11-18T05:28:24;8.00;99.90
25554;DHT22;13446;50.926;5.332;2023-11-18T05:30:50;8.10;99.90
25554;DHT22;13446;50.926;5.332;2023-11-18T05:33:17;8.10;99.90
25554;DHT22;13446;50.926;5.332;2023-11-18T05:35:44;8.10;99.90
25554;DHT22;13446;50.926;5.332;2023-11-18T05:38:19;8.10;99.90
25554;DHT22;13446;50.926;5.332;2023-11-18T05:40:50;8.20;99.90
25554;DHT22;13446;50.926;5.332;2023-11-18T05:43:26;8.20;99.90
25554;DHT22;13446;50.926;5.332;2023-11-18T05:45:55;8.20;99.90
25554;DHT22;13446;50.926;5.332;2023-11-18T05:48:43;8.10;99.90
25554;DHT22;13446;50.926;5.332;2023-11-18T05:51:10;7.90;99.90
25554;DHT22;13446;50.926;5.332;2023-11-18T05:53:45;7.90;99.90
25554;DHT22;13446;50.926;5.332;2023-11-18T05:56:15;7.90;99.90
25554;DHT22;13446;50.926;5.332;2023-11-18T05:58:43;7.90;99.90
25554;DHT22;13446;50.926;5.332;2023-11-18T06:01:09;8.20;99.90
25554;DHT22;13446;50.926;5.332;2023-11-18T06:03:37;8.20;99.90
25554;DHT22;13446;50.926;5.332;2023-11-18T06:06:06;8.30;99.90
25554;DHT22;13446;50.926;5.332;2023-11-18T06:08:36;8.20;99.90
25554;DHT22;13446;50.926;5.332;2023-11-18T06:11:07;8.20;99.90
25554;DHT22;13446;50.926;5.332;2023-11-18T06:13:58;8.20;99.90
25554;DHT22;13446;50.926;5.332;2023-11-18T06:16:25;8.30;99.90
25554;DHT22;13446;50.926;5.332;2023-11-18T06:18:53;8.30;99.90
25554;DHT22;13446;50.926;5.332;2023-11-18T06:21:20;8.30;99.90
25554;DHT22;13446;50.926;5.332;2023-11-18T06:23:49;8.20;99.90
25554;DHT22;13446;50.926;5.332;2023-11-18T06:26:16;8.10;99.90
25554;DHT22;13446;50.926;5.332;2023-11-18T06:28:43;8.10;99.90
25554;DHT22;13446;50.926;5.332;2023-11-18T06:31:09;8.20;99.90
25554;DHT22;13446;50.926;5.332;2023-11-18T06:33:38;8.10;99.90
25554;DHT22;13446;50.926;5.332;2023-11-18T06:36:08;8.30;99.90
25554;DHT22;13446;50.926;5.332;2023-11-18T06:38:34;8.30;99.90
25554;DHT22;13446;50.926;5.332;2023-11-18T06:41:00;8.30;99.90
25554;DHT22;13446;50.926;5.332;2023-11-18T06:43:28;8.30;99.90
25554;DHT22;13446;50.926;5.332;2023-11-18T06:46:01;8.30;99.90
25554;DHT22;13446;50.926;5.332;2023-11-18T06:48:27;8.20;99.90
25554;DHT22;13446;50.926;5.332;2023-11-18T06:50:53;8.30;99.90
25554;DHT22;13446;50.926;5.332;2023-11-18T06:53:19;8.40;99.90
25554;DHT22;13446;50.926;5.332;2023-11-18T06:55:46;8.60;99.90
25554;DHT22;13446;50.926;5.332;2023-11-18T06:58:11;8.50;99.90
25554;DHT22;13446;50.926;5.332;2023-11-18T07:00:38;8.30;99.90
25554;DHT22;13446;50.926;5.332;2023-11-18T07:03:04;8.30;99.90
25554;DHT22;13446;50.926;5.332;2023-11-18T07:05:31;8.30;99.90
25554;DHT22;13446;50.926;5.332;2023-11-18T07:07:56;8.40;99.90
25554;DHT22;13446;50.926;5.332;2023-11-18T07:10:22;8.50;99.90
25554;DHT22;13446;50.926;5.332;2023-11-18T07:12:48;8.50;99.90
25554;DHT22;13446;50.926;5.332;2023-11-18T07:15:14;8.40;99.90
25554;DHT22;13446;50.926;5.332;2023-11-18T07:17:40;8.40;99.90
25554;DHT22;13446;50.926;5.332;2023-11-18T07:20:06;8.40;99.90
25554;DHT22;13446;50.926;5.332;2023-11-18T07:22:32;8.40;99.90
25554;DHT22;13446;50.926;5.332;2023-11-18T07:24:58;8.40;99.90
25554;DHT22;13446;50.926;5.332;2023-11-18T07:27:23;8.50;99.90
25554;DHT22;13446;50.926;5.332;2023-11-18T07:29:49;8.60;99.90
25554;DHT22;13446;50.926;5.332;2023-11-18T07:32:15;8.80;99.90
25554;DHT22;13446;50.926;5.332;2023-11-18T07:34:40;8.70;99.90
25554;DHT22;13446;50.926;5.332;2023-11-18T07:37:07;8.70;99.90
25554;DHT22;13446;50.926;5.332;2023-11-18T07:39:36;8.70;99.90
25554;DHT22;13446;50.926;5.332;2023-11-18T07:42:12;8.70;99.90
25554;DHT22;13446;50.926;5.332;2023-11-18T07:44:38;8.70;99.90
25554;DHT22;13446;50.926;5.332;2023-11-18T07:47:07;8.80;99.90
25554;DHT22;13446;50.926;5.332;2023-11-18T07:49:34;8.80;99.90
25554;DHT22;13446;50.926;5.332;2023-11-18T07:52:02;8.80;99.90
25554;DHT22;13446;50.926;5.332;2023-11-18T07:54:28;8.90;99.90
25554;DHT22;13446;50.926;5.332;2023-11-18T07:56:53;9.00;99.90
25554;DHT22;13446;50.926;5.332;2023-11-18T07:59:20;9.00;99.90
25554;DHT22;13446;50.926;5.332;2023-11-18T08:01:49;8.90;99.90
25554;DHT22;13446;50.926;5.332;2023-11-18T08:04:15;8.70;99.90
25554;DHT22;13446;50.926;5.332;2023-11-18T08:06:42;8.70;99.90
25554;DHT22;13446;50.926;5.332;2023-11-18T08:09:09;8.80;99.90
25554;DHT22;13446;50.926;5.332;2023-11-18T08:11:40;8.90;99.90
25554;DHT22;13446;50.926;5.332;2023-11-18T08:14:07;8.90;99.90
25554;DHT22;13446;50.926;5.332;2023-11-18T08:16:36;8.80;99.90
25554;DHT22;13446;50.926;5.332;2023-11-18T08:19:02;8.70;99.90
25554;DHT22;13446;50.926;5.332;2023-11-18T08:21:28;8.80;99.90
25554;DHT22;13446;50.926;5.332;2023-11-18T08:23:54;8.90;99.90
25554;DHT22;13446;50.926;5.332;2023-11-18T08:26:19;8.80;99.90
25554;DHT22;13446;50.926;5.332;2023-11-18T08:28:45;8.90;99.90
25554;DHT22;13446;50.926;5.332;2023-11-18T08:31:13;8.90;99.90
25554;DHT22;13446;50.926;5.332;2023-11-18T08:33:42;8.80;99.90
25554;DHT22;13446;50.926;5.332;2023-11-18T08:36:08;8.90;99.90
25554;DHT22;13446;50.926;5.332;2023-11-18T08:38:34;9.00;99.90
25554;DHT22;13446;50.926;5.332;2023-11-18T08:41:01;8.90;99.90
25554;DHT22;13446;50.926;5.332;2023-11-18T08:43:27;8.90;99.90
25554;DHT22;13446;50.926;5.332;2023-11-18T08:45:54;8.90;99.90
25554;DHT22;13446;50.926;5.332;2023-11-18T08:48:22;8.80;99.90
25554;DHT22;13446;50.926;5.332;2023-11-18T08:50:49;8.80;99.90
25554;DHT22;13446;50.926;5.332;2023-11-18T08:53:15;8.90;99.90
25554;DHT22;13446;50.926;5.332;2023-11-18T08:55:50;9.00;99.90
25554;DHT22;13446;50.926;5.332;2023-11-18T08:58:17;9.00;99.90
25554;DHT22;13446;50.926;5.332;2023-11-18T09:00:49;9.10;99.90
25554;DHT22;13446;50.926;5.332;2023-11-18T09:03:24;9.00;99.90
25554;DHT22;13446;50.926;5.332;2023-11-18T09:05:52;8.80;99.90
25554;DHT22;13446;50.926;5.332;2023-11-18T09:08:31;8.90;99.90
25554;DHT22;13446;50.926;5.332;2023-11-18T09:11:12;9.00;99.90
25554;DHT22;13446;50.926;5.332;2023-11-18T09:13:41;9.00;99.90
25554;DHT22;13446;50.926;5.332;2023-11-18T09:16:08;8.90;99.90
25554;DHT22;13446;50.926;5.332;2023-11-18T09:18:35;8.90;99.90
25554;DHT22;13446;50.926;5.332;2023-11-18T09:21:01;8.90;99.90
25554;DHT22;13446;50.926;5.332;2023-11-18T09:23:29;8.90;99.90
25554;DHT22;13446;50.926;5.332;2023-11-18T09:25:55;9.00;99.90
25554;DHT22;13446;50.926;5.332;2023-11-18T09:28:23;9.10;99.90
25554;DHT22;13446;50.926;5.332;2023-11-18T09:30:50;9.10;99.90
25554;DHT22;13446;50.926;5.332;2023-11-18T09:33:20;9.10;99.90
25554;DHT22;13446;50.926;5.332;2023-11-18T09:35:55;9.10;99.90
25554;DHT22;13446;50.926;5.332;2023-11-18T09:38:31;8.90;99.90
25554;DHT22;13446;50.926;5.332;2023-11-18T09:40:59;9.10;99.90
25554;DHT22;13446;50.926;5.332;2023-11-18T09:43:31;9.20;99.90
25554;DHT22;13446;50.926;5.332;2023-11-18T09:46:25;9.20;99.90
25554;DHT22;13446;50.926;5.332;2023-11-18T09:49:12;9.10;99.90
25554;DHT22;13446;50.926;5.332;2023-11-18T09:51:43;9.10;99.90
25554;DHT22;13446;50.926;5.332;2023-11-18T09:54:44;9.10;99.90
25554;DHT22;13446;50.926;5.332;2023-11-18T09:57:23;9.10;99.90
25554;DHT22;13446;50.926;5.332;2023-11-18T10:00:08;9.10;99.90
25554;DHT22;13446;50.926;5.332;2023-11-18T10:02:47;9.10;99.90
25554;DHT22;13446;50.926;5.332;2023-11-18T10:05:16;9.20;99.90
25554;DHT22;13446;50.926;5.332;2023-11-18T10:07:46;9.20;99.90
25554;DHT22;13446;50.926;5.332;2023-11-18T10:10:15;9.10;99.90
25554;DHT22;13446;50.926;5.332;2023-11-18T10:12:49;9.20;99.90
25554;DHT22;13446;50.926;5.332;2023-11-18T10:15:18;9.20;99.90
25554;DHT22;13446;50.926;5.332;2023-11-18T10:17:45;9.40;99.90
25554;DHT22;13446;50.926;5.332;2023-11-18T10:20:23;9.40;99.90
25554;DHT22;13446;50.926;5.332;2023-11-18T10:23:10;9.30;99.90
25554;DHT22;13446;50.926;5.332;2023-11-18T10:26:08;9.30;99.90
25554;DHT22;13446;50.926;5.332;2023-11-18T10:28:49;9.30;99.90
25554;DHT22;13446;50.926;5.332;2023-11-18T10:31:21;9.20;99.90
25554;DHT22;13446;50.926;5.332;2023-11-18T10:36:29;9.30;99.90
25554;DHT22;13446;50.926;5.332;2023-11-18T10:38:58;9.30;99.90
25554;DHT22;13446;50.926;5.332;2023-11-18T10:41:25;9.50;99.90
25554;DHT22;13446;50.926;5.332;2023-11-18T10:44:11;9.50;99.90
25554;DHT22;13446;50.926;5.332;2023-11-18T10:46:56;9.50;99.90
25554;DHT22;13446;50.926;5.332;2023-11-18T10:49:27;9.40;99.90
25554;DHT22;13446;50.926;5.332;2023-11-18T10:51:55;9.40;99.90
25554;DHT22;13446;50.926;5.332;2023-11-18T10:54:21;9.30;99.90
25554;DHT22;13446;50.926;5.332;2023-11-18T10:56:50;9.40;99.90
25554;DHT22;13446;50.926;5.332;2023-11-18T10:59:16;9.50;99.90
25554;DHT22;13446;50.926;5.332;2023-11-18T11:01:52;9.60;99.90
25554;DHT22;13446;50.926;5.332;2023-11-18T11:04:18;9.50;99.90
25554;DHT22;13446;50.926;5.332;2023-11-18T11:06:48;9.50;99.90
25554;DHT22;13446;50.926;5.332;2023-11-18T11:09:33;9.50;99.90
25554;DHT22;13446;50.926;5.332;2023-11-18T11:12:10;9.40;99.90
25554;DHT22;13446;50.926;5.332;2023-11-18T11:14:46;9.40;99.90
25554;DHT22;13446;50.926;5.332;2023-11-18T11:17:17;9.40;99.90
25554;DHT22;13446;50.926;5.332;2023-11-18T11:28:50;9.40;99.90
25554;DHT22;13446;50.926;5.332;2023-11-18T11:31:34;9.40;99.90
25554;DHT22;13446;50.926;5.332;2023-11-18T11:34:04;9.40;99.90
25554;DHT22;13446;50.926;5.332;2023-11-18T11:36:46;9.50;99.90
25554;DHT22;13446;50.926;5.332;2023-11-18T11:39:14;9.60;99.90
25554;DHT22;13446;50.926;5.332;2023-11-18T11:42:00;9.60;99.90
25554;DHT22;13446;50.926;5.332;2023-11-18T11:44:28;9.60;99.90
25554;DHT22;13446;50.926;5.332;2023-11-18T11:46:58;9.50;99.90
25554;DHT22;13446;50.926;5.332;2023-11-18T11:49:26;9.40;99.90
25554;DHT22;13446;50.926;5.332;2023-11-18T11:52:04;9.20;99.90
25554;DHT22;13446;50.926;5.332;2023-11-18T11:54:42;9.30;99.90
25554;DHT22;13446;50.926;5.332;2023-11-18T11:57:10;9.40;99.90
25554;DHT22;13446;50.926;5.332;2023-11-18T12:02:13;9.40;99.90
25554;DHT22;13446;50.926;5.332;2023-11-18T12:04:51;9.40;99.90
25554;DHT22;13446;50.926;5.332;2023-11-18T12:07:20;9.30;99.90
25554;DHT22;13446;50.926;5.332;2023-11-18T12:09:49;9.30;99.90
25554;DHT22;13446;50.926;5.332;2023-11-18T12:12:22;9.30;99.90
25554;DHT22;13446;50.926;5.332;2023-11-18T12:14:52;9.30;99.90
25554;DHT22;13446;50.926;5.332;2023-11-18T12:17:21;9.20;99.90
25554;DHT22;13446;50.926;5.332;2023-11-18T12:19:48;9.30;99.90
25554;DHT22;13446;50.926;5.332;2023-11-18T12:22:20;9.30;99.90
25554;DHT22;13446;50.926;5.332;2023-11-18T12:35:22;9.40;99.90
25554;DHT22;13446;50.926;5.332;2023-11-18T12:40:53;9.50;99.90
25554;DHT22;13446;50.926;5.332;2023-11-18T12:43:49;9.50;99.90
25554;DHT22;13446;50.926;5.332;2023-11-18T12:46:32;9.50;99.90
25554;DHT22;13446;50.926;5.332;2023-11-18T12:49:13;9.60;99.90
25554;DHT22;13446;50.926;5.332;2023-11-18T12:51:42;9.50;99.90
25554;DHT22;13446;50.926;5.332;2023-11-18T12:54:09;9.50;99.90
25554;DHT22;13446;50.926;5.332;2023-11-18T12:56:38;9.60;99.90
25554;DHT22;13446;50.926;5.332;2023-11-18T12:59:05;9.60;99.90
25554;DHT22;13446;50.926;5.332;2023-11-18T13:01:33;9.70;99.90
25554;DHT22;13446;50.926;5.332;2023-11-18T13:04:08;9.60;99.90
25554;DHT22;13446;50.926;5.332;2023-11-18T13:06:36;9.70;99.90
25554;DHT22;13446;50.926;5.332;2023-11-18T13:09:02;9.70;99.90
25554;DHT22;13446;50.926;5.332;2023-11-18T13:11:35;9.70;99.90
25554;DHT22;13446;50.926;5.332;2023-11-18T13:14:00;9.70;99.90
25554;DHT22;13446;50.926;5.332;2023-11-18T13:16:28;9.70;99.90
25554;DHT22;13446;50.926;5.332;2023-11-18T13:18:53;9.60;99.90
25554;DHT22;13446;50.926;5.332;2023-11-18T13:21:21;9.60;99.90
25554;DHT22;13446;50.926;5.332;2023-11-18T13:23:49;9.70;99.90
25554;DHT22;13446;50.926;5.332;2023-11-18T13:26:18;9.60;99.90
25554;DHT22;13446;50.926;5.332;2023-11-18T13:28:46;9.50;99.90
25554;DHT22;13446;50.926;5.332;2023-11-18T13:31:12;9.50;99.90
25554;DHT22;13446;50.926;5.332;2023-11-18T13:33:42;9.50;99.90
25554;DHT22;13446;50.926;5.332;2023-11-18T13:36:09;9.50;99.90
25554;DHT22;13446;50.926;5.332;2023-11-18T13:38:38;9.50;99.90
25554;DHT22;13446;50.926;5.332;2023-11-18T13:41:04;9.60;99.90
25554;DHT22;13446;50.926;5.332;2023-11-18T13:43:43;9.50;99.90
25554;DHT22;13446;50.926;5.332;2023-11-18T13:46:18;9.50;99.90
25554;DHT22;13446;50.926;5.332;2023-11-18T13:48:48;9.50;99.90
25554;DHT22;13446;50.926;5.332;2023-11-18T13:51:16;9.60;99.90
25554;DHT22;13446;50.926;5.332;2023-11-18T13:53:45;9.40;99.90
25554;DHT22;13446;50.926;5.332;2023-11-18T13:56:14;9.40;99.90
25554;DHT22;13446;50.926;5.332;2023-11-18T13:58:42;9.40;99.90
25554;DHT22;13446;50.926;5.332;2023-11-18T14:01:10;9.40;99.90
25554;DHT22;13446;50.926;5.332;2023-11-18T14:03:36;9.30;99.90
25554;DHT22;13446;50.926;5.332;2023-11-18T14:06:05;9.40;99.90
25554;DHT22;13446;50.926;5.332;2023-11-18T14:08:31;9.40;99.90
25554;DHT22;13446;50.926;5.332;2023-11-18T14:10:57;9.50;99.90
25554;DHT22;13446;50.926;5.332;2023-11-18T14:13:23;9.50;99.90
25554;DHT22;13446;50.926;5.332;2023-11-18T14:15:48;9.60;99.90
25554;DHT22;13446;50.926;5.332;2023-11-18T14:18:20;9.60;99.90
25554;DHT22;13446;50.926;5.332;2023-11-18T14:20:46;9.70;99.90
25554;DHT22;13446;50.926;5.332;2023-11-18T14:23:14;9.60;99.90
25554;DHT22;13446;50.926;5.332;2023-11-18T14:25:39;9.60;99.90
25554;DHT22;13446;50.926;5.332;2023-11-18T14:28:05;9.60;99.90
25554;DHT22;13446;50.926;5.332;2023-11-18T14:30:34;9.40;99.90
25554;DHT22;13446;50.926;5.332;2023-11-18T14:33:00;9.50;99.90
25554;DHT22;13446;50.926;5.332;2023-11-18T14:35:26;9.50;99.90
25554;DHT22;13446;50.926;5.332;2023-11-18T14:37:51;9.40;99.90
25554;DHT22;13446;50.926;5.332;2023-11-18T14:40:17;9.40;99.90
25554;DHT22;13446;50.926;5.332;2023-11-18T14:42:46;9.50;99.90
25554;DHT22;13446;50.926;5.332;2023-11-18T14:45:13;9.50;99.90
25554;DHT22;13446;50.926;5.332;2023-11-18T14:47:40;9.50;99.90
25554;DHT22;13446;50.926;5.332;2023-11-18T14:50:07;9.60;99.90
25554;DHT22;13446;50.926;5.332;2023-11-18T14:52:49;9.50;99.90
25554;DHT22;13446;50.926;5.332;2023-11-18T14:55:17;9.50;99.90
25554;DHT22;13446;50.926;5.332;2023-11-18T14:57:44;9.40;99.90
25554;DHT22;13446;50.926;5.332;2023-11-18T15:00:11;9.50;99.90
25554;DHT22;13446;50.926;5.332;2023-11-18T15:02:54;9.50;99.90
25554;DHT22;13446;50.926;5.332;2023-11-18T15:05:29;9.40;99.90
25554;DHT22;13446;50.926;5.332;2023-11-18T15:07:57;9.50;99.90
25554;DHT22;13446;50.926;5.332;2023-11-18T15:10:27;9.60;99.90
25554;DHT22;13446;50.926;5.332;2023-11-18T15:12:54;9.50;99.90
25554;DHT22;13446;50.926;5.332;2023-11-18T15:15:31;9.50;99.90
25554;DHT22;13446;50.926;5.332;2023-11-18T15:18:04;9.50;99.90
25554;DHT22;13446;50.926;5.332;2023-11-18T15:20:32;9.50;99.90
25554;DHT22;13446;50.926;5.332;2023-11-18T15:22:57;9.50;99.90
25554;DHT22;13446;50.926;5.332;2023-11-18T15:25:23;9.50;99.90
25554;DHT22;13446;50.926;5.332;2023-11-18T15:27:59;9.60;99.90
25554;DHT22;13446;50.926;5.332;2023-11-18T15:30:29;9.70;99.90
25554;DHT22;13446;50.926;5.332;2023-11-18T15:33:04;9.70;99.90
25554;DHT22;13446;50.926;5.332;2023-11-18T15:35:38;9.90;99.90
25554;DHT22;13446;50.926;5.332;2023-11-18T15:38:07;9.80;99.90
25554;DHT22;13446;50.926;5.332;2023-11-18T15:40:36;9.90;99.90
25554;DHT22;13446;50.926;5.332;2023-11-18T15:43:03;9.80;99.90
25554;DHT22;13446;50.926;5.332;2023-11-18T15:45:31;9.80;99.90
25554;DHT22;13446;50.926;5.332;2023-11-18T15:48:00;9.80;99.90
25554;DHT22;13446;50.926;5.332;2023-11-18T15:50:30;9.80;99.90
25554;DHT22;13446;50.926;5.332;2023-11-18T15:52:56;9.70;99.90
25554;DHT22;13446;50.926;5.332;2023-11-18T15:55:22;9.80;99.90
25554;DHT22;13446;50.926;5.332;2023-11-18T15:57:51;9.80;99.90
25554;DHT22;13446;50.926;5.332;2023-11-18T16:00:30;9.90;99.90
25554;DHT22;13446;50.926;5.332;2023-11-18T16:02:57;10.00;99.90
25554;DHT22;13446;50.926;5.332;2023-11-18T16:05:25;9.90;99.90
25554;DHT22;13446;50.926;5.332;2023-11-18T16:07:52;9.90;99.90
25554;DHT22;13446;50.926;5.332;2023-11-18T16:10:22;10.00;99.90
25554;DHT22;13446;50.926;5.332;2023-11-18T16:12:49;10.00;99.90
25554;DHT22;13446;50.926;5.332;2023-11-18T16:15:21;10.00;99.90
25554;DHT22;13446;50.926;5.332;2023-11-18T16:17:48;10.00;99.90
25554;DHT22;13446;50.926;5.332;2023-11-18T16:20:16;10.10;99.90
25554;DHT22;13446;50.926;5.332;2023-11-18T16:22:49;9.90;99.90
25554;DHT22;13446;50.926;5.332;2023-11-18T16:25:16;10.00;99.90
25554;DHT22;13446;50.926;5.332;2023-11-18T16:27:52;10.00;99.90
25554;DHT22;13446;50.926;5.332;2023-11-18T16:30:19;10.00;99.90